createdAt,value
2023-04-18T04:15:27.180Z,83.35
2023-04-18T04:16:27.179Z,83.35
2023-04-18T04:17:27.183Z,83.65
2023-04-18T04:18:27.146Z,83.55
2023-04-18T04:19:27.122Z,83.55
2023-04-18T04:20:27.108Z,84.00
2023-04-18T04:21:27.100Z,84.00
2023-04-18T04:22:27.081Z,83.80
2023-04-18T04:23:27.107Z,83.70
2023-04-18T04:24:27.066Z,83.70
2023-04-18T04:25:27.036Z,83.90
2023-04-18T04:26:27.036Z,84.11
2023-04-18T04:27:27.014Z,84.31
2023-04-18T04:28:27.013Z,84.31
2023-04-18T04:29:26.998Z,84.11
2023-04-18T04:30:26.986Z,84.21
2023-04-18T04:31:26.995Z,84.52
2023-04-18T04:32:26.985Z,84.62
2023-04-18T04:33:26.951Z,84.31
2023-04-18T04:34:26.922Z,84.31
2023-04-18T04:35:26.925Z,84.00
2023-04-18T04:36:26.893Z,83.90
2023-04-18T04:37:26.898Z,84.11
2023-04-18T04:38:26.883Z,84.11
2023-04-18T04:39:26.849Z,84.42
2023-04-18T04:40:26.860Z,84.31
2023-04-18T04:41:26.828Z,84.31
2023-04-18T04:42:26.815Z,84.52
2023-04-18T04:43:26.817Z,84.42
2023-04-18T04:44:26.871Z,84.11
2023-04-18T04:45:26.789Z,84.11
2023-04-18T04:46:26.775Z,84.11
2023-04-18T04:47:26.752Z,84.11
2023-04-18T04:48:26.749Z,84.00
2023-04-18T04:49:26.713Z,84.11
2023-04-18T04:50:26.711Z,84.31
2023-04-18T04:51:26.695Z,84.52
2023-04-18T04:52:26.684Z,84.52
2023-04-18T04:53:26.674Z,84.72
2023-04-18T04:54:26.658Z,84.52
2023-04-18T04:55:26.645Z,84.31
2023-04-18T04:56:26.638Z,84.62
2023-04-18T04:57:26.619Z,84.62
2023-04-18T04:58:26.654Z,84.72
2023-04-18T04:59:26.605Z,85.24
2023-04-18T05:00:26.581Z,84.93
2023-04-18T05:01:26.604Z,84.83
2023-04-18T05:02:26.625Z,84.83
2023-04-18T05:03:26.731Z,84.72
2023-04-18T05:04:26.705Z,84.83
2023-04-18T05:05:26.511Z,84.93
2023-04-18T05:06:26.525Z,85.03
2023-04-18T05:07:26.481Z,84.83
2023-04-18T05:08:26.486Z,84.83
2023-04-18T05:09:26.451Z,84.83
2023-04-18T05:10:26.479Z,85.03
2023-04-18T05:11:26.436Z,84.93
2023-04-18T05:12:26.425Z,84.83
2023-04-18T05:13:26.417Z,84.93
2023-04-18T05:14:26.397Z,85.03
2023-04-18T05:15:26.379Z,85.24
2023-04-18T05:16:26.404Z,85.24
2023-04-18T05:17:26.358Z,85.34
2023-04-18T05:18:26.360Z,85.03
2023-04-18T05:19:26.316Z,85.24
2023-04-18T05:20:26.318Z,85.14
2023-04-18T05:21:26.296Z,85.03
2023-04-18T05:22:26.286Z,85.14
2023-04-18T05:23:26.296Z,85.14
2023-04-18T05:24:26.274Z,84.93
2023-04-18T05:25:26.257Z,85.44
2023-04-18T05:26:26.247Z,85.10
2023-04-18T05:27:26.298Z,85.14
2023-04-18T05:28:26.221Z,85.71
2023-04-18T05:29:26.196Z,85.30
2023-04-18T05:30:26.195Z,85.92
2023-04-18T05:31:26.198Z,85.41
2023-04-18T05:32:26.167Z,84.69
2023-04-18T05:33:26.148Z,84.27
2023-04-18T05:34:26.129Z,84.58
2023-04-18T05:35:26.128Z,84.27
2023-04-18T05:36:26.102Z,84.79
2023-04-18T05:37:26.103Z,84.58
2023-04-18T05:38:26.089Z,84.48
2023-04-18T05:39:26.112Z,84.89
2023-04-18T05:40:26.059Z,84.99
2023-04-18T05:41:26.039Z,84.99
2023-04-18T05:42:26.045Z,84.99
2023-04-18T05:43:26.036Z,85.10
2023-04-18T05:44:26.023Z,85.20
2023-04-18T05:45:25.991Z,85.10
2023-04-18T05:46:25.987Z,85.41
2023-04-18T05:47:25.970Z,84.89
2023-04-18T05:48:25.967Z,84.89
2023-04-18T05:49:25.928Z,85.30
2023-04-18T05:50:25.924Z,84.99
2023-04-18T05:51:25.905Z,84.79
2023-04-18T05:52:25.925Z,84.69
2023-04-18T05:53:25.895Z,85.20
2023-04-18T05:54:25.885Z,85.10
2023-04-18T05:55:25.852Z,85.20
2023-04-18T05:56:25.878Z,85.30
2023-04-18T05:57:25.852Z,84.99
2023-04-18T05:58:25.831Z,85.10
2023-04-18T05:59:25.804Z,85.61
2023-04-18T06:00:25.862Z,85.41
2023-04-18T06:01:25.840Z,85.61
2023-04-18T06:02:26.108Z,84.89
2023-04-18T06:03:25.968Z,84.48
2023-04-18T06:04:25.902Z,85.20
2023-04-18T06:05:25.880Z,85.41
2023-04-18T06:06:25.793Z,85.41
2023-04-18T06:07:25.729Z,85.20
2023-04-18T06:08:25.752Z,85.10
2023-04-18T06:09:25.757Z,85.10
2023-04-18T06:10:25.704Z,84.99
2023-04-18T06:11:25.662Z,85.10
2023-04-18T06:12:25.671Z,85.30
2023-04-18T06:13:25.640Z,85.20
2023-04-18T06:14:25.605Z,85.30
2023-04-18T06:15:25.591Z,85.30
2023-04-18T06:16:25.637Z,85.30
2023-04-18T06:17:25.592Z,85.26
2023-04-18T06:18:25.578Z,85.51
2023-04-18T06:19:25.533Z,85.61
2023-04-18T06:20:25.525Z,85.41
2023-04-18T06:21:25.512Z,85.51
2023-04-18T06:22:25.511Z,85.71
2023-04-18T06:23:25.512Z,85.82
2023-04-18T06:24:25.477Z,85.92
2023-04-18T06:25:25.468Z,85.82
2023-04-18T06:26:25.449Z,85.92
2023-04-18T06:27:31.103Z,85.71
2023-04-18T06:28:26.446Z,86.13
2023-04-18T06:29:25.408Z,85.78
2023-04-18T06:30:25.400Z,86.19
2023-04-18T06:31:25.394Z,85.88
2023-04-18T06:32:25.463Z,85.68
2023-04-18T06:33:25.376Z,85.57
2023-04-18T06:34:25.340Z,85.78
2023-04-18T06:35:26.640Z,86.08
2023-04-18T06:36:25.321Z,85.68
2023-04-18T06:37:25.301Z,85.47
2023-04-18T06:38:25.302Z,85.78
2023-04-18T06:39:25.276Z,85.78
2023-04-18T06:40:25.270Z,86.08
2023-04-18T06:41:25.269Z,85.98
2023-04-18T06:42:25.242Z,86.08
2023-04-18T06:43:25.236Z,85.98
2023-04-18T06:44:25.240Z,86.19
2023-04-18T06:45:25.246Z,86.29
2023-04-18T06:46:25.322Z,86.40
2023-04-18T06:47:25.190Z,86.50
2023-04-18T06:48:25.182Z,86.29
2023-04-18T06:49:26.654Z,86.19
2023-04-18T06:50:25.138Z,86.08
2023-04-18T06:51:25.122Z,86.29
2023-04-18T06:52:25.111Z,85.98
2023-04-18T06:53:25.106Z,86.08
2023-04-18T06:54:25.085Z,86.19
2023-04-18T06:55:25.068Z,86.08
2023-04-18T06:56:25.064Z,86.50
2023-04-18T06:57:25.060Z,86.46
2023-04-18T06:58:25.061Z,86.19
2023-04-18T06:59:25.013Z,85.94
2023-04-18T07:00:25.024Z,86.19
2023-04-18T07:01:25.004Z,86.25
2023-04-18T07:02:25.046Z,86.35
2023-04-18T07:03:25.097Z,86.25
2023-04-18T07:04:25.016Z,86.15
2023-04-18T07:05:24.935Z,86.46
2023-04-18T07:06:24.929Z,86.05
2023-04-18T07:07:24.902Z,86.05
2023-04-18T07:08:24.912Z,86.05
2023-04-18T07:09:24.893Z,86.15
2023-04-18T07:10:24.871Z,86.15
2023-04-18T07:11:24.865Z,86.05
2023-04-18T07:12:24.850Z,86.25
2023-04-18T07:13:24.837Z,86.35
2023-04-18T07:14:24.845Z,85.84
2023-04-18T07:15:24.804Z,86.15
2023-04-18T07:16:24.828Z,85.84
2023-04-18T07:17:24.806Z,86.25
2023-04-18T07:18:36.686Z,86.05
2023-04-18T07:20:39.561Z,86.11
2023-04-18T07:21:39.536Z,86.42
2023-04-18T07:22:39.529Z,86.21
2023-04-18T07:23:39.533Z,86.21
2023-04-18T07:24:39.507Z,86.11
2023-04-18T07:25:39.500Z,86.21
2023-04-18T07:26:39.477Z,86.11
2023-04-18T07:27:39.459Z,85.90
2023-04-18T07:28:39.464Z,85.90
2023-04-18T07:29:39.452Z,86.32
2023-04-18T07:30:39.491Z,86.32
2023-04-18T07:31:39.427Z,86.21
2023-04-18T07:32:39.458Z,86.32
2023-04-18T07:33:39.383Z,85.97
2023-04-18T07:34:39.368Z,85.66
2023-04-18T07:35:39.365Z,85.86
2023-04-18T07:36:39.346Z,85.76
2023-04-18T07:37:39.351Z,85.80
2023-04-18T07:38:39.354Z,86.21
2023-04-18T07:39:39.303Z,86.42
2023-04-18T07:40:39.315Z,86.52
2023-04-18T07:41:39.276Z,86.52
2023-04-18T07:42:39.286Z,86.62
2023-04-18T07:43:39.257Z,86.72
2023-04-18T07:44:39.266Z,86.62
2023-04-18T07:45:39.226Z,86.52
2023-04-18T07:46:39.285Z,86.32
2023-04-18T07:47:39.255Z,86.52
2023-04-18T07:48:39.192Z,86.83
2023-04-18T07:49:39.179Z,86.93
2023-04-18T07:50:39.173Z,86.62
2023-04-18T07:51:39.153Z,86.52
2023-04-18T07:52:39.637Z,86.32
2023-04-18T07:53:39.137Z,86.83
2023-04-18T07:54:39.111Z,87.04
2023-04-18T07:55:39.098Z,86.79
2023-04-18T07:56:39.099Z,86.79
2023-04-18T07:57:39.100Z,86.89
2023-04-18T07:58:39.065Z,86.24
2023-04-18T07:59:39.049Z,86.27
2023-04-18T08:00:39.041Z,86.17
2023-04-18T08:01:39.019Z,85.97
2023-04-18T08:02:39.135Z,86.17
2023-04-18T08:03:39.086Z,86.38
2023-04-18T08:04:39.139Z,86.27
2023-04-18T08:05:39.048Z,86.48
2023-04-18T08:06:38.961Z,86.58
2023-04-18T08:07:38.942Z,86.27
2023-04-18T08:08:38.942Z,86.17
2023-04-18T08:09:38.927Z,86.07
2023-04-18T08:10:38.911Z,85.55
2023-04-18T08:11:38.892Z,85.76
2023-04-18T08:12:38.875Z,86.07
2023-04-18T08:13:38.892Z,86.17
2023-04-18T08:14:38.848Z,86.38
2023-04-18T08:15:38.838Z,86.27
2023-04-18T08:16:38.876Z,86.27
2023-04-18T08:17:38.873Z,86.27
2023-04-18T08:18:38.811Z,86.48
2023-04-18T08:19:38.897Z,86.44
2023-04-18T08:20:38.784Z,86.33
2023-04-18T08:21:38.755Z,86.33
2023-04-18T08:22:50.020Z,86.44
2023-04-18T08:23:39.737Z,86.44
2023-04-18T08:24:38.724Z,85.86
2023-04-18T08:25:38.708Z,86.27
2023-04-18T08:26:38.693Z,86.68
2023-04-18T08:27:38.675Z,86.79
2023-04-18T08:28:38.683Z,86.58
2023-04-18T08:29:38.645Z,86.79
2023-04-18T08:30:38.643Z,86.99
2023-04-18T08:31:38.626Z,87.30
2023-04-18T08:32:38.664Z,87.10
2023-04-18T08:33:38.609Z,86.89
2023-04-18T08:34:38.582Z,86.99
2023-04-18T08:35:38.583Z,86.79
2023-04-18T08:36:38.563Z,86.58
2023-04-18T08:37:38.544Z,86.68
2023-04-18T08:38:38.559Z,86.89
2023-04-18T08:39:38.518Z,86.89
2023-04-18T08:40:38.518Z,87.26
2023-04-18T08:41:38.507Z,86.95
2023-04-18T08:42:38.590Z,86.85
2023-04-18T08:43:38.472Z,86.33
2023-04-18T08:44:38.497Z,86.03
2023-04-18T08:45:38.487Z,86.33
2023-04-18T08:46:38.448Z,86.09
2023-04-18T08:47:38.431Z,86.19
2023-04-18T08:48:38.409Z,86.19
2023-04-18T08:49:38.381Z,85.54
2023-04-18T08:50:38.370Z,85.47
2023-04-18T08:51:38.353Z,85.54
2023-04-18T08:52:38.350Z,85.23
2023-04-18T08:53:38.344Z,85.44
2023-04-18T08:54:38.321Z,85.33
2023-04-18T08:55:38.318Z,85.33
2023-04-18T08:56:38.292Z,85.54
2023-04-18T08:57:38.274Z,85.13
2023-04-18T08:58:38.297Z,85.38
2023-04-18T08:59:38.251Z,85.74
2023-04-18T09:00:38.238Z,85.33
2023-04-18T09:01:38.249Z,85.23
2023-04-18T09:02:38.298Z,85.23
2023-04-18T09:03:38.243Z,85.23
2023-04-18T09:04:38.338Z,85.33
2023-04-18T09:05:38.164Z,85.23
2023-04-18T09:06:38.158Z,85.03
2023-04-18T09:07:38.134Z,85.23
2023-04-18T09:08:38.136Z,84.99
2023-04-18T09:09:38.118Z,84.44
2023-04-18T09:10:38.105Z,84.09
2023-04-18T09:11:38.085Z,83.03
2023-04-18T09:12:38.076Z,82.41
2023-04-18T09:13:38.063Z,82.41
2023-04-18T09:14:38.082Z,81.90
2023-04-18T09:15:38.049Z,82.00
2023-04-18T09:16:38.070Z,81.94
2023-04-18T09:17:38.064Z,82.45
2023-04-18T09:18:38.001Z,82.35
2023-04-18T09:19:37.992Z,82.86
2023-04-18T09:20:38.446Z,82.45
2023-04-18T09:21:37.964Z,82.00
2023-04-18T09:22:39.559Z,82.41
2023-04-18T09:23:37.937Z,82.17
2023-04-18T09:24:37.947Z,81.86
2023-04-18T09:25:39.821Z,81.24
2023-04-18T09:26:37.905Z,81.15
2023-04-18T09:27:37.887Z,81.51
2023-04-18T09:28:37.871Z,81.10
2023-04-18T09:29:37.878Z,81.31
2023-04-18T09:30:37.962Z,80.76
2023-04-18T09:31:37.836Z,80.05
2023-04-18T09:32:37.847Z,79.74
2023-04-18T09:33:37.813Z,79.05
2023-04-18T09:34:37.805Z,78.27
2023-04-18T09:35:37.792Z,78.34
2023-04-18T09:36:37.806Z,78.85
2023-04-18T09:37:37.756Z,78.34
2023-04-18T09:38:37.728Z,78.48
2023-04-18T09:39:37.724Z,78.58
2023-04-18T09:40:37.703Z,79.94
2023-04-18T09:41:37.706Z,79.50
2023-04-18T09:42:37.685Z,79.29
2023-04-18T09:43:37.687Z,79.36
2023-04-18T09:44:37.673Z,79.16
2023-04-18T09:45:37.645Z,78.85
2023-04-18T09:46:37.743Z,77.62
2023-04-18T09:47:37.779Z,78.75
2023-04-18T09:48:37.604Z,78.54
2023-04-18T09:49:37.608Z,78.09
2023-04-18T09:50:37.570Z,77.28
2023-04-18T09:51:37.565Z,77.31
2023-04-18T09:52:37.571Z,77.93
2023-04-18T09:53:37.530Z,78.13
2023-04-18T09:54:37.525Z,78.48
2023-04-18T09:55:37.507Z,79.09
2023-04-18T09:56:37.489Z,79.50
2023-04-18T09:57:37.493Z,79.64
2023-04-18T09:58:37.457Z,79.98
2023-04-18T09:59:37.479Z,80.08
2023-04-18T10:00:37.437Z,80.60
2023-04-18T10:01:37.458Z,80.60
2023-04-18T10:02:37.517Z,80.46
2023-04-18T10:03:37.497Z,80.15
2023-04-18T10:04:37.502Z,79.80
2023-04-18T10:05:37.378Z,79.50
2023-04-18T10:06:37.356Z,78.75
2023-04-18T10:07:37.348Z,78.81
2023-04-18T10:08:37.337Z,77.55
2023-04-18T10:09:37.340Z,78.19
2023-04-18T10:10:38.966Z,76.69
2023-04-18T10:11:37.322Z,74.32
2023-04-18T10:12:37.279Z,73.54
2023-04-18T10:13:37.271Z,74.45
2023-04-18T10:14:37.263Z,74.42
2023-04-18T10:15:37.276Z,75.10
2023-04-18T10:16:37.255Z,77.01
2023-04-18T10:17:37.239Z,77.52
2023-04-18T10:18:37.271Z,77.93
2023-04-18T10:19:37.208Z,78.34
2023-04-18T10:20:37.184Z,77.93
2023-04-18T10:21:37.157Z,78.13
2023-04-18T10:22:37.148Z,78.03
2023-04-18T10:23:37.188Z,77.79
2023-04-18T10:24:37.120Z,77.28
2023-04-18T10:25:37.137Z,77.18
2023-04-18T10:26:37.098Z,77.28
2023-04-18T10:27:37.088Z,77.79
2023-04-18T10:28:37.366Z,77.89
2023-04-18T10:29:37.048Z,77.42
2023-04-18T10:30:37.060Z,78.03
2023-04-18T10:31:37.059Z,78.23
2023-04-18T10:32:37.065Z,77.79
2023-04-18T10:33:37.145Z,77.48
2023-04-18T10:34:38.020Z,77.08
2023-04-18T10:35:37.612Z,76.97
2023-04-18T10:36:36.965Z,76.67
2023-04-18T10:37:36.946Z,76.67
2023-04-18T10:38:36.940Z,76.93
2023-04-18T10:39:36.921Z,76.46
2023-04-18T10:40:36.970Z,76.97
2023-04-18T10:41:36.897Z,77.59
2023-04-18T10:42:36.897Z,77.48
2023-04-18T10:43:36.874Z,77.18
2023-04-18T10:44:36.873Z,76.67
2023-04-18T10:45:36.844Z,77.31
2023-04-18T10:46:36.894Z,77.72
2023-04-18T10:47:36.895Z,78.13
2023-04-18T10:48:38.537Z,77.83
2023-04-18T10:49:36.813Z,77.83
2023-04-18T10:50:36.779Z,77.72
2023-04-18T10:51:36.772Z,78.13
2023-04-18T10:52:36.757Z,77.89
2023-04-18T10:53:36.745Z,77.69
2023-04-18T10:54:36.743Z,78.00
2023-04-18T10:55:36.717Z,78.20
2023-04-18T10:56:36.726Z,77.69
2023-04-18T10:57:36.704Z,77.96
2023-04-18T10:58:36.679Z,77.65
2023-04-18T10:59:36.680Z,77.31
2023-04-18T11:00:36.675Z,77.41
2023-04-18T11:01:36.706Z,76.29
2023-04-18T11:02:36.737Z,76.35
2023-04-18T11:03:36.651Z,76.29
2023-04-18T11:04:36.625Z,76.50
2023-04-18T11:05:36.597Z,76.76
2023-04-18T11:06:36.578Z,76.05
2023-04-18T11:07:36.561Z,75.13
2023-04-18T11:08:36.551Z,75.07
2023-04-18T11:09:36.529Z,75.37
2023-04-18T11:10:36.556Z,75.34
2023-04-18T11:11:36.512Z,75.64
2023-04-18T11:12:36.652Z,75.95
2023-04-18T11:13:36.485Z,75.27
2023-04-18T11:14:36.474Z,74.66
2023-04-18T11:15:36.466Z,73.71
2023-04-18T11:16:36.519Z,74.01
2023-04-18T11:17:36.449Z,73.60
2023-04-18T11:18:36.423Z,73.40
2023-04-18T11:19:36.412Z,73.16
2023-04-18T11:20:36.404Z,73.06
2023-04-18T11:21:36.382Z,72.92
2023-04-18T11:22:36.373Z,72.48
2023-04-18T11:23:36.352Z,72.45
2023-04-18T11:24:36.339Z,71.73
2023-04-18T11:25:36.352Z,71.77
2023-04-18T11:26:37.256Z,72.78
2023-04-18T11:27:36.305Z,72.89
2023-04-18T11:28:36.287Z,72.99
2023-04-18T11:29:36.269Z,72.89
2023-04-18T11:30:36.268Z,73.74
2023-04-18T11:31:36.295Z,74.25
2023-04-18T11:32:36.397Z,74.04
2023-04-18T11:33:36.209Z,73.80
2023-04-18T11:34:36.206Z,72.89
2023-04-18T11:35:36.218Z,73.30
2023-04-18T11:36:36.187Z,72.72
2023-04-18T11:37:36.155Z,73.54
2023-04-18T11:38:36.149Z,73.54
2023-04-18T11:39:36.144Z,72.89
2023-04-18T11:40:36.128Z,72.65
2023-04-18T11:41:36.100Z,72.65
2023-04-18T11:42:36.089Z,72.92
2023-04-18T11:43:36.095Z,73.74
2023-04-18T11:44:36.352Z,73.77
2023-04-18T11:45:36.058Z,73.36
2023-04-18T11:46:36.139Z,73.67
2023-04-18T11:47:36.054Z,74.05
2023-04-18T11:48:36.022Z,75.07
2023-04-18T11:49:35.995Z,74.55
2023-04-18T11:50:36.004Z,75.16
2023-04-18T11:51:36.108Z,75.34
2023-04-18T11:52:35.965Z,73.91
2023-04-18T11:53:35.951Z,74.01
2023-04-18T11:54:35.931Z,74.42
2023-04-18T11:55:35.924Z,73.81
2023-04-18T11:56:36.943Z,74.01
2023-04-18T11:57:35.890Z,73.47
2023-04-18T11:58:35.894Z,72.55
2023-04-18T11:59:35.878Z,73.36
2023-04-18T12:00:35.861Z,72.55
2023-04-18T12:01:35.832Z,73.06
2023-04-18T12:02:35.900Z,72.82
2023-04-18T12:03:36.060Z,72.62
2023-04-18T12:04:36.112Z,72.99
2023-04-18T12:05:36.209Z,71.56
2023-04-18T12:06:35.777Z,71.77
2023-04-18T12:07:35.759Z,70.99
2023-04-18T12:08:35.747Z,71.70
2023-04-18T12:09:35.734Z,71.47
2023-04-18T12:10:35.749Z,69.73
2023-04-18T12:11:35.707Z,70.34
2023-04-18T12:12:35.705Z,70.31
2023-04-18T12:13:35.771Z,69.40
2023-04-18T12:14:35.672Z,70.04
2023-04-18T12:15:35.716Z,70.65
2023-04-18T12:16:35.815Z,70.24
2023-04-18T12:17:35.664Z,70.86
2023-04-18T12:18:35.621Z,71.09
2023-04-18T12:19:35.600Z,71.06
2023-04-18T12:20:35.614Z,70.34
2023-04-18T12:21:35.584Z,70.10
2023-04-18T12:22:35.567Z,68.35
2023-04-18T12:23:35.613Z,65.92
2023-04-18T12:24:35.542Z,65.24
2023-04-18T12:25:35.541Z,66.03
2023-04-18T12:26:35.517Z,63.27
2023-04-18T12:27:35.491Z,62.05
2023-04-18T12:28:35.479Z,61.49
2023-04-18T12:29:35.463Z,60.17
2023-04-18T12:30:37.609Z,60.68
2023-04-18T12:31:35.510Z,60.98
2023-04-18T12:32:35.464Z,61.21
2023-04-18T12:33:35.411Z,60.58
2023-04-18T12:34:35.404Z,60.55
2023-04-18T12:35:35.398Z,60.32
2023-04-18T12:36:35.388Z,58.67
2023-04-18T12:37:35.358Z,59.05
2023-04-18T12:38:35.353Z,58.65
2023-04-18T12:39:35.338Z,59.08
2023-04-18T12:40:35.342Z,59.11
2023-04-18T12:41:35.302Z,58.40
2023-04-18T12:42:35.299Z,59.08
2023-04-18T12:43:35.281Z,58.92
2023-04-18T12:44:35.266Z,59.18
2023-04-18T12:45:35.267Z,58.72
2023-04-18T12:46:35.272Z,58.17
2023-04-18T12:47:35.256Z,58.87
2023-04-18T12:48:35.216Z,59.28
2023-04-18T12:49:35.213Z,61.19
2023-04-18T12:50:35.204Z,61.90
2023-04-18T12:51:35.201Z,62.40
2023-04-18T12:52:35.173Z,62.40
2023-04-18T12:53:35.147Z,61.85
2023-04-18T12:54:37.363Z,63.73
2023-04-18T12:55:35.139Z,64.04
2023-04-18T12:56:35.114Z,64.78
2023-04-18T12:57:35.090Z,65.01
2023-04-18T12:58:35.082Z,65.62
2023-04-18T12:59:35.064Z,65.04
2023-04-18T13:00:35.171Z,65.14
2023-04-18T13:01:35.116Z,64.67
2023-04-18T13:02:35.138Z,64.78
2023-04-18T13:03:35.155Z,64.81
2023-04-18T13:04:35.123Z,65.52
2023-04-18T13:05:35.003Z,65.82
2023-04-18T13:06:34.988Z,65.24
2023-04-18T13:07:34.983Z,66.19
2023-04-18T13:08:34.976Z,66.29
2023-04-18T13:09:34.934Z,66.39
2023-04-18T13:10:34.936Z,66.29
2023-04-18T13:11:34.913Z,65.85
2023-04-18T13:12:34.902Z,66.29
2023-04-18T13:13:35.802Z,65.59
2023-04-18T13:14:34.879Z,62.99
2023-04-18T13:15:34.882Z,61.99
2023-04-18T13:16:34.880Z,60.75
2023-04-18T13:17:34.864Z,60.68
2023-04-18T13:18:34.840Z,61.32
2023-04-18T13:19:34.817Z,61.72
2023-04-18T13:20:41.876Z,61.98
2023-04-18T13:21:34.780Z,63.93
2023-04-18T13:22:34.778Z,63.96
2023-04-18T13:23:34.761Z,64.91
2023-04-18T13:24:34.754Z,65.21
2023-04-18T13:25:34.763Z,65.42
2023-04-18T13:26:34.717Z,65.85
2023-04-18T13:27:34.705Z,65.95
2023-04-18T13:28:34.688Z,66.26
2023-04-18T13:29:34.679Z,66.29
2023-04-18T13:30:34.668Z,67.20
2023-04-18T13:31:34.705Z,66.60
2023-04-18T13:32:34.653Z,67.10
2023-04-18T13:33:34.616Z,67.41
2023-04-18T13:34:34.647Z,66.49
2023-04-18T13:35:34.590Z,67.00
2023-04-18T13:36:34.587Z,66.80
2023-04-18T13:37:34.562Z,67.00
2023-04-18T13:38:34.565Z,67.10
2023-04-18T13:39:34.534Z,67.54
2023-04-18T13:40:34.536Z,66.90
2023-04-18T13:41:34.526Z,66.29
2023-04-18T13:42:34.515Z,66.22
2023-04-18T13:43:34.512Z,67.41
2023-04-18T13:44:34.470Z,66.83
2023-04-18T13:45:34.490Z,66.83
2023-04-18T13:46:34.559Z,66.63
2023-04-18T13:47:34.481Z,66.39
2023-04-18T13:48:34.423Z,66.22
2023-04-18T13:49:34.408Z,66.02
2023-04-18T13:50:34.411Z,66.55
2023-04-18T13:51:34.394Z,66.55
2023-04-18T13:52:34.370Z,67.47
2023-04-18T13:53:34.358Z,67.47
2023-04-18T13:54:34.331Z,67.67
2023-04-18T13:55:34.337Z,67.64
2023-04-18T13:56:34.325Z,67.64
2023-04-18T13:57:34.303Z,67.13
2023-04-18T13:58:34.282Z,66.63
2023-04-18T13:59:34.286Z,67.77
2023-04-18T14:00:34.270Z,67.57
2023-04-18T14:01:34.273Z,67.47
2023-04-18T14:02:34.303Z,67.27
2023-04-18T14:03:35.626Z,67.06
2023-04-18T14:04:34.315Z,68.28
2023-04-18T14:05:34.218Z,66.83
2023-04-18T14:06:34.182Z,66.93
2023-04-18T14:07:34.177Z,66.93
2023-04-18T14:08:34.151Z,66.32
2023-04-18T14:09:34.141Z,66.83
2023-04-18T14:10:34.146Z,66.93
2023-04-18T14:11:34.124Z,66.63
2023-04-18T14:12:34.129Z,67.03
2023-04-18T14:13:34.089Z,66.63
2023-04-18T14:14:34.091Z,66.05
2023-04-18T14:15:34.100Z,66.55
2023-04-18T14:16:34.043Z,67.16
2023-04-18T14:17:34.044Z,66.96
2023-04-18T14:18:34.024Z,67.36
2023-04-18T14:19:34.017Z,68.08
2023-04-18T14:20:34.001Z,66.93
2023-04-18T14:21:33.992Z,67.13
2023-04-18T14:22:33.961Z,66.86
2023-04-18T14:23:33.950Z,66.86
2023-04-18T14:24:33.962Z,66.86
2023-04-18T14:25:33.929Z,66.89
2023-04-18T14:26:33.933Z,67.47
2023-04-18T14:27:33.908Z,66.55
2023-04-18T14:28:33.882Z,66.86
2023-04-18T14:29:33.879Z,66.76
2023-04-18T14:30:33.874Z,66.55
2023-04-18T14:31:33.885Z,66.86
2023-04-18T14:32:33.875Z,66.46
2023-04-18T14:33:33.822Z,66.12
2023-04-18T14:34:35.318Z,65.61
2023-04-18T14:35:33.807Z,65.41
2023-04-18T14:36:33.898Z,66.22
2023-04-18T14:37:33.769Z,65.41
2023-04-18T14:38:33.743Z,65.61
2023-04-18T14:39:33.736Z,65.44
2023-04-18T14:40:33.745Z,66.15
2023-04-18T14:41:33.723Z,65.81
2023-04-18T14:42:33.704Z,66.32
2023-04-18T14:43:33.694Z,66.08
2023-04-18T14:44:33.676Z,65.58
2023-04-18T14:45:33.703Z,65.78
2023-04-18T14:46:33.687Z,65.91
2023-04-18T14:47:33.683Z,65.71
2023-04-18T14:48:33.623Z,65.91
2023-04-18T14:49:33.610Z,66.25
2023-04-18T14:50:33.597Z,66.25
2023-04-18T14:51:33.571Z,65.74
2023-04-18T14:52:33.560Z,66.35
2023-04-18T14:53:33.547Z,64.40
2023-04-18T14:54:33.582Z,63.15
2023-04-18T14:55:33.562Z,63.59
2023-04-18T14:56:33.510Z,64.56
2023-04-18T14:57:33.501Z,65.48
2023-04-18T14:58:33.483Z,64.76
2023-04-18T14:59:33.474Z,64.06
2023-04-18T15:00:33.455Z,65.07
2023-04-18T15:01:33.478Z,64.67
2023-04-18T15:02:33.691Z,65.17
2023-04-18T15:03:33.573Z,65.71
2023-04-18T15:04:33.470Z,65.71
2023-04-18T15:05:33.397Z,65.94
2023-04-18T15:06:33.372Z,66.66
2023-04-18T15:07:33.366Z,66.46
2023-04-18T15:08:33.348Z,65.75
2023-04-18T15:09:33.353Z,63.09
2023-04-18T15:10:33.323Z,61.16
2023-04-18T15:11:33.331Z,58.78
2023-04-18T15:12:33.310Z,57.31
2023-04-18T15:13:33.286Z,56.63
2023-04-18T15:14:33.274Z,56.50
2023-04-18T15:15:33.258Z,55.87
2023-04-18T15:16:33.276Z,55.51
2023-04-18T15:17:33.260Z,54.33
2023-04-18T15:18:33.232Z,54.46
2023-04-18T15:19:33.230Z,55.16
2023-04-18T15:20:33.191Z,56.23
2023-04-18T15:21:33.178Z,56.60
2023-04-18T15:22:33.165Z,56.02
2023-04-18T15:23:33.155Z,55.90
2023-04-18T15:24:33.141Z,55.94
2023-04-18T15:25:33.147Z,56.43
2023-04-18T15:26:33.459Z,56.45
2023-04-18T15:27:33.106Z,57.29
2023-04-18T15:28:33.095Z,57.85
2023-04-18T15:29:33.132Z,57.59
2023-04-18T15:30:33.077Z,56.35
2023-04-18T15:31:33.070Z,55.90
2023-04-18T15:32:33.068Z,55.46
2023-04-18T15:33:33.028Z,55.14
2023-04-18T15:34:33.003Z,55.26
2023-04-18T15:35:33.008Z,54.99
2023-04-18T15:36:32.982Z,55.16
2023-04-18T15:37:32.981Z,54.50
2023-04-18T15:38:33.317Z,53.50
2023-04-18T15:39:32.960Z,54.03
2023-04-18T15:40:32.946Z,54.46
2023-04-18T15:41:32.921Z,54.66
2023-04-18T15:42:32.940Z,54.86
2023-04-18T15:43:32.895Z,55.16
2023-04-18T15:44:32.876Z,54.56
2023-04-18T15:45:32.875Z,54.13
2023-04-18T15:46:32.901Z,54.36
2023-04-18T15:47:32.879Z,54.86
2023-04-18T15:48:32.824Z,54.61
2023-04-18T15:49:32.824Z,54.10
2023-04-18T15:50:33.704Z,54.66
2023-04-18T15:51:32.793Z,55.62
2023-04-18T15:52:32.779Z,55.52
2023-04-18T15:53:32.759Z,55.82
2023-04-18T15:54:32.744Z,55.57
2023-04-18T15:55:32.755Z,54.46
2023-04-18T15:56:33.748Z,55.16
2023-04-18T15:57:32.714Z,54.25
2023-04-18T15:58:32.699Z,54.13
2023-04-18T15:59:32.683Z,54.66
2023-04-18T16:00:32.689Z,55.09
2023-04-18T16:01:32.881Z,55.49
2023-04-18T16:02:32.702Z,55.69
2023-04-18T16:03:32.735Z,55.32
2023-04-18T16:04:32.625Z,56.32
2023-04-18T16:05:32.619Z,55.39
2023-04-18T16:06:32.588Z,55.39
2023-04-18T16:07:32.580Z,55.59
2023-04-18T16:08:33.404Z,55.99
2023-04-18T16:09:32.551Z,55.26
2023-04-18T16:10:32.547Z,55.29
2023-04-18T16:11:32.519Z,55.90
2023-04-18T16:12:32.512Z,55.79
2023-04-18T16:13:32.504Z,54.73
2023-04-18T16:14:32.472Z,54.30
2023-04-18T16:15:32.508Z,54.13
2023-04-18T16:16:32.480Z,54.21
2023-04-18T16:17:32.474Z,54.66
2023-04-18T16:18:32.474Z,56.05
2023-04-18T16:19:34.424Z,56.78
2023-04-18T16:20:32.406Z,56.98
2023-04-18T16:21:32.396Z,57.09
2023-04-18T16:22:32.373Z,57.62
2023-04-18T16:23:32.356Z,57.52
2023-04-18T16:24:32.347Z,57.92
2023-04-18T16:25:32.343Z,58.53
2023-04-18T16:26:32.323Z,58.61
2023-04-18T16:27:32.302Z,59.42
2023-04-18T16:28:32.315Z,58.78
2023-04-18T16:29:32.283Z,58.36
2023-04-18T16:30:32.285Z,57.31
2023-04-18T16:31:32.328Z,57.62
2023-04-18T16:32:32.295Z,58.25
2023-04-18T16:33:32.254Z,58.45
2023-04-18T16:34:32.218Z,58.86
2023-04-18T16:35:32.218Z,57.95
2023-04-18T16:36:32.192Z,59.09
2023-04-18T16:37:32.174Z,59.09
2023-04-18T16:38:32.163Z,59.19
2023-04-18T16:39:32.156Z,59.47
2023-04-18T16:40:32.149Z,58.69
2023-04-18T16:41:32.134Z,60.26
2023-04-18T16:42:32.119Z,60.66
2023-04-18T16:43:32.103Z,60.33
2023-04-18T16:44:32.093Z,59.90
2023-04-18T16:45:32.076Z,59.87
2023-04-18T16:46:32.144Z,59.19
2023-04-18T16:47:32.078Z,59.47
2023-04-18T16:48:32.039Z,59.83
2023-04-18T16:49:32.028Z,60.33
2023-04-18T16:50:32.022Z,60.63
2023-04-18T16:51:31.996Z,60.23
2023-04-18T16:52:31.981Z,59.80
2023-04-18T16:53:31.968Z,59.49
2023-04-18T16:54:31.968Z,59.80
2023-04-18T16:55:31.952Z,60.00
2023-04-18T16:56:31.951Z,60.03
2023-04-18T16:57:31.932Z,60.53
2023-04-18T16:58:31.925Z,60.63
2023-04-18T16:59:31.899Z,60.13
2023-04-18T17:00:31.889Z,60.03
2023-04-18T17:01:31.903Z,60.13
2023-04-18T17:02:31.992Z,60.53
2023-04-18T17:03:31.945Z,59.90
2023-04-18T17:04:31.853Z,60.43
2023-04-18T17:05:31.825Z,60.63
2023-04-18T17:06:31.809Z,60.23
2023-04-18T17:07:31.779Z,60.66
2023-04-18T17:08:31.769Z,60.97